Time;durP1;ratioP1;P1;durP2;ratioP2;P2;SDS_P1;SDS_P2;PMS_P1;PMS_P2;Temp;Humidity;BMP_temperature;BMP_pressure;BME280_temperature;BME280_humidity;BME280_pressure;Samples;Min_cycle;Max_cycle;Signal;HPM_P1;HPM_P2
2023/07/04 00:00:59;;;;;;;10.98;5.95;;;;;;;;;;5093909;28;20203;-43
2023/07/04 00:03:45;;;;;;;11.13;6.25;;;;;;;;;;5093823;28;20222;-44
2023/07/04 00:06:14;;;;;;;12.02;6.00;;;;;;;;;;5093873;28;20206;-44
2023/07/04 00:08:41;;;;;;;12.02;6.60;;;;;;;;;;5093979;28;20229;-44
2023/07/04 00:11:09;;;;;;;13.00;7.03;;;;;;;;;;5093469;28;20209;-45
2023/07/04 00:13:37;;;;;;;17.23;6.13;;;;;;;;;;5093549;28;20667;-44
2023/07/04 00:16:06;;;;;;;14.85;6.80;;;;;;;;;;5093507;28;20222;-45
2023/07/04 00:18:36;;;;;;;14.30;6.25;;;;;;;;;;5093537;28;20252;-45
2023/07/04 00:21:07;;;;;;;12.88;7.32;;;;;;;;;;5093512;28;20207;-44
2023/07/04 00:23:36;;;;;;;14.25;7.05;;;;;;;;;;5093321;28;20671;-44
2023/07/04 00:26:04;;;;;;;13.40;7.28;;;;;;;;;;5093526;28;20207;-44
2023/07/04 00:28:33;;;;;;;14.68;6.82;;;;;;;;;;5093397;28;20256;-44
2023/07/04 00:31:03;;;;;;;12.90;6.78;;;;;;;;;;5093342;28;20207;-45
2023/07/04 00:33:30;;;;;;;14.40;6.55;;;;;;;;;;5093618;28;20222;-43
2023/07/04 00:36:03;;;;;;;12.07;6.18;;;;;;;;;;5092545;28;20226;-45
2023/07/04 00:38:32;;;;;;;12.73;6.65;;;;;;;;;;5093527;28;20183;-44
2023/07/04 00:41:23;;;;;;;12.55;6.40;;;;;;;;;;5092239;28;20597;-44
2023/07/04 00:44:19;;;;;;;13.10;7.38;;;;;;;;;;5093153;28;20202;-44
2023/07/04 00:46:53;;;;;;;11.95;6.28;;;;;;;;;;5093678;28;20226;-45
2023/07/04 00:49:45;;;;;;;14.40;7.15;;;;;;;;;;5091999;28;20659;-44
2023/07/04 00:52:12;;;;;;;17.30;7.35;;;;;;;;;;5075753;28;20317;-44
2023/07/04 00:54:47;;;;;;;15.18;6.90;;;;;;;;;;5093389;28;20230;-44
2023/07/04 00:57:15;;;;;;;16.45;6.82;;;;;;;;;;5076090;28;20209;-44
2023/07/04 00:59:44;;;;;;;13.82;6.63;;;;;;;;;;5093029;28;20203;-44
2023/07/04 01:02:17;;;;;;;13.77;6.72;;;;;;;;;;5092249;28;20199;-44
2023/07/04 01:04:46;;;;;;;18.27;6.80;;;;;;;;;;5091966;28;20207;-45
2023/07/04 01:07:45;;;;;;;12.15;6.88;;;;;;;;;;5093637;28;20206;-44
2023/07/04 01:10:17;;;;;;;12.60;6.63;;;;;;;;;;5093808;28;20203;-44
2023/07/04 01:12:45;;;;;;;16.33;7.50;;;;;;;;;;5095707;28;20248;-43
2023/07/04 01:15:12;;;;;;;13.82;6.75;;;;;;;;;;5096968;28;20566;-44
2023/07/04 01:17:42;;;;;;;14.00;7.15;;;;;;;;;;5096687;28;20217;-44
2023/07/04 01:20:12;;;;;;;15.63;7.82;;;;;;;;;;5097057;28;20183;-44
2023/07/04 01:22:51;;;;;;;16.02;7.28;;;;;;;;;;5078917;28;20194;-44
2023/07/04 01:25:41;;;;;;;13.43;7.53;;;;;;;;;;5078967;28;20269;-43
2023/07/04 01:28:09;;;;;;;11.35;6.63;;;;;;;;;;5095660;28;20190;-43
2023/07/04 01:30:38;;;;;;;15.52;7.22;;;;;;;;;;5095542;28;20209;-44
2023/07/04 01:33:08;;;;;;;12.25;6.70;;;;;;;;;;5095194;28;20205;-44
2023/07/04 01:35:36;;;;;;;13.30;7.10;;;;;;;;;;5094871;28;20229;-44
2023/07/04 01:38:05;;;;;;;12.05;6.47;;;;;;;;;;5095368;28;20195;-43
2023/07/04 01:40:35;;;;;;;12.68;6.82;;;;;;;;;;5095140;28;20210;-44
2023/07/04 01:43:02;;;;;;;15.25;7.30;;;;;;;;;;5095934;28;20206;-44
2023/07/04 01:45:30;;;;;;;16.13;7.20;;;;;;;;;;5095883;28;20206;-45
2023/07/04 01:47:57;;;;;;;14.27;6.75;;;;;;;;;;5095823;28;20628;-45
2023/07/04 01:50:24;;;;;;;14.60;6.90;;;;;;;;;;5096105;28;20206;-43
2023/07/04 01:52:51;;;;;;;14.98;7.00;;;;;;;;;;5094601;28;20199;-43
2023/07/04 01:55:19;;;;;;;14.13;7.15;;;;;;;;;;5095778;28;20267;-43
2023/07/04 01:57:47;;;;;;;11.85;7.13;;;;;;;;;;5094719;28;20207;-44
2023/07/04 02:00:14;;;;;;;13.05;6.47;;;;;;;;;;5094468;28;20211;-45
2023/07/04 02:02:54;;;;;;;12.15;6.53;;;;;;;;;;5096010;28;20192;-45
2023/07/04 02:05:22;;;;;;;12.40;6.70;;;;;;;;;;5094569;28;20217;-44
2023/07/04 02:07:49;;;;;;;11.90;6.63;;;;;;;;;;5095853;28;20213;-44
2023/07/04 02:10:16;;;;;;;13.75;6.63;;;;;;;;;;5094488;28;20198;-45
2023/07/04 02:12:43;;;;;;;10.95;6.32;;;;;;;;;;5094210;28;20203;-46
2023/07/04 02:15:11;;;;;;;12.23;6.88;;;;;;;;;;5095287;28;20234;-43
2023/07/04 02:17:40;;;;;;;17.20;7.18;;;;;;;;;;5095169;28;20202;-44
2023/07/04 02:20:08;;;;;;;16.15;6.80;;;;;;;;;;5095267;28;20198;-45
2023/07/04 02:22:36;;;;;;;14.13;7.35;;;;;;;;;;5095212;28;20205;-46
2023/07/04 02:25:03;;;;;;;18.63;7.47;;;;;;;;;;5093080;28;20287;-44
2023/07/04 02:27:30;;;;;;;11.77;6.45;;;;;;;;;;5095224;28;20226;-44
2023/07/04 02:29:58;;;;;;;11.55;6.47;;;;;;;;;;5095061;28;20198;-46
2023/07/04 02:32:25;;;;;;;12.88;7.10;;;;;;;;;;5094081;28;20206;-48
2023/07/04 02:34:52;;;;;;;15.60;6.80;;;;;;;;;;5095181;28;20207;-43
2023/07/04 02:37:19;;;;;;;14.40;7.07;;;;;;;;;;5094979;28;20205;-45
2023/07/04 02:39:46;;;;;;;15.30;7.15;;;;;;;;;;5093846;28;20564;-45
2023/07/04 02:42:13;;;;;;;13.05;7.45;;;;;;;;;;5093867;28;20199;-44
2023/07/04 02:44:41;;;;;;;13.95;6.85;;;;;;;;;;5093792;28;20210;-44
2023/07/04 02:47:08;;;;;;;16.45;7.30;;;;;;;;;;5095394;28;20202;-44
2023/07/04 02:49:39;;;;;;;14.93;7.47;;;;;;;;;;5093758;28;20214;-44
2023/07/04 02:52:09;;;;;;;14.98;7.97;;;;;;;;;;5082559;28;20888;-44
2023/07/04 02:54:36;;;;;;;13.82;7.40;;;;;;;;;;5072556;28;20671;-45
2023/07/04 02:57:03;;;;;;;14.60;6.93;;;;;;;;;;5072433;28;20238;-45
2023/07/04 02:59:31;;;;;;;14.13;7.35;;;;;;;;;;5072468;28;20691;-44
2023/07/04 03:01:59;;;;;;;12.95;7.13;;;;;;;;;;5072678;28;20594;-46
2023/07/04 03:04:27;;;;;;;20.77;8.18;;;;;;;;;;5105140;28;20214;-44
2023/07/04 03:06:55;;;;;;;12.35;6.65;;;;;;;;;;5071394;28;20219;-46
2023/07/04 03:09:23;;;;;;;14.60;7.78;;;;;;;;;;5072524;28;20207;-45
2023/07/04 03:11:50;;;;;;;11.27;6.47;;;;;;;;;;5071324;28;20284;-44
2023/07/04 03:14:18;;;;;;;16.33;7.72;;;;;;;;;;5071897;28;20203;-44
2023/07/04 03:16:46;;;;;;;11.90;6.47;;;;;;;;;;5083634;28;20222;-44
2023/07/04 03:19:14;;;;;;;15.80;7.30;;;;;;;;;;5093450;28;20207;-44
2023/07/04 03:21:41;;;;;;;10.98;6.80;;;;;;;;;;5094453;28;20210;-44
2023/07/04 03:24:09;;;;;;;14.15;7.47;;;;;;;;;;5092957;28;20237;-44
2023/07/04 03:26:37;;;;;;;11.80;6.80;;;;;;;;;;5093090;28;20206;-44
2023/07/04 03:29:07;;;;;;;12.98;6.63;;;;;;;;;;5092974;28;20256;-43
2023/07/04 03:31:35;;;;;;;11.85;6.65;;;;;;;;;;5092382;28;20263;-44
2023/07/04 03:34:03;;;;;;;13.57;7.05;;;;;;;;;;5094246;28;20194;-43
2023/07/04 03:36:30;;;;;;;16.30;7.40;;;;;;;;;;5094066;28;20214;-43
2023/07/04 03:38:57;;;;;;;14.23;7.43;;;;;;;;;;5093099;28;20224;-43
2023/07/04 03:41:27;;;;;;;13.57;7.38;;;;;;;;;;5093417;28;20651;-44
2023/07/04 03:43:54;;;;;;;13.73;6.88;;;;;;;;;;5090902;28;20230;-44
2023/07/04 03:46:23;;;;;;;11.77;6.90;;;;;;;;;;5085193;28;20211;-44
2023/07/04 03:48:50;;;;;;;15.02;6.85;;;;;;;;;;5092657;28;20659;-44
2023/07/04 03:51:18;;;;;;;17.10;7.28;;;;;;;;;;5092866;28;20559;-44
2023/07/04 03:53:47;;;;;;;13.75;6.82;;;;;;;;;;5092874;28;20209;-48
2023/07/04 03:56:15;;;;;;;12.00;7.07;;;;;;;;;;5093529;28;20597;-46
2023/07/04 03:58:43;;;;;;;15.13;7.45;;;;;;;;;;5092622;28;20203;-46
2023/07/04 04:01:10;;;;;;;15.27;7.07;;;;;;;;;;5092828;28;20199;-44
2023/07/04 04:03:38;;;;;;;13.85;6.88;;;;;;;;;;5093482;28;20609;-45
2023/07/04 04:06:07;;;;;;;13.13;7.30;;;;;;;;;;5093611;28;20198;-44
2023/07/04 04:08:35;;;;;;;14.80;7.53;;;;;;;;;;5093740;28;20202;-44
2023/07/04 04:11:02;;;;;;;13.32;6.97;;;;;;;;;;5093533;28;20289;-45
2023/07/04 04:13:30;;;;;;;14.23;7.80;;;;;;;;;;5075898;28;20231;-44
2023/07/04 04:15:58;;;;;;;18.25;7.30;;;;;;;;;;5084881;28;20231;-43
2023/07/04 04:18:25;;;;;;;15.98;7.57;;;;;;;;;;5074247;28;20276;-44
2023/07/04 04:20:52;;;;;;;20.77;7.90;;;;;;;;;;5082758;28;20258;-44
2023/07/04 04:23:21;;;;;;;16.17;7.32;;;;;;;;;;5084322;28;20227;-44
2023/07/04 04:25:48;;;;;;;17.83;7.88;;;;;;;;;;5082753;28;20219;-44
2023/07/04 04:28:15;;;;;;;12.98;7.03;;;;;;;;;;5092227;28;20226;-45
2023/07/04 04:30:43;;;;;;;17.98;7.78;;;;;;;;;;5092803;28;20215;-43
2023/07/04 04:33:10;;;;;;;14.77;7.38;;;;;;;;;;5092823;28;20227;-43
2023/07/04 04:35:39;;;;;;;12.75;7.38;;;;;;;;;;5092802;28;20698;-44
2023/07/04 04:38:10;;;;;;;14.18;7.22;;;;;;;;;;5092536;28;20234;-43
2023/07/04 04:40:39;;;;;;;13.98;7.18;;;;;;;;;;5092746;28;20215;-43
2023/07/04 04:43:07;;;;;;;12.00;7.22;;;;;;;;;;5096016;28;20627;-45
2023/07/04 04:45:34;;;;;;;15.35;7.00;;;;;;;;;;5090052;28;20311;-43
2023/07/04 04:48:02;;;;;;;13.80;7.70;;;;;;;;;;5091203;28;20776;-43
2023/07/04 04:50:30;;;;;;;14.15;7.32;;;;;;;;;;5075256;28;20231;-43
2023/07/04 04:52:59;;;;;;;16.90;8.07;;;;;;;;;;5074596;28;20230;-43
2023/07/04 04:55:27;;;;;;;17.70;8.07;;;;;;;;;;5074998;28;20223;-43
2023/07/04 04:57:54;;;;;;;15.73;7.65;;;;;;;;;;5082009;28;20229;-43
2023/07/04 05:00:21;;;;;;;16.13;7.70;;;;;;;;;;5096138;28;20581;-43
2023/07/04 05:02:49;;;;;;;14.57;7.72;;;;;;;;;;5096286;28;20226;-43
2023/07/04 05:05:16;;;;;;;13.82;7.70;;;;;;;;;;5083689;28;20593;-44
2023/07/04 05:07:44;;;;;;;14.20;7.88;;;;;;;;;;5095879;28;20222;-45
2023/07/04 05:10:11;;;;;;;14.57;7.20;;;;;;;;;;5095957;28;20257;-43
2023/07/04 05:12:39;;;;;;;15.65;7.35;;;;;;;;;;5095250;28;20221;-44
2023/07/04 05:15:07;;;;;;;14.95;7.45;;;;;;;;;;5095575;28;20231;-43
2023/07/04 05:17:34;;;;;;;18.83;8.10;;;;;;;;;;5095828;28;20226;-43
2023/07/04 05:20:01;;;;;;;19.17;8.20;;;;;;;;;;5096324;28;20220;-43
2023/07/04 05:22:28;;;;;;;16.52;7.35;;;;;;;;;;5095411;28;20223;-43
2023/07/04 05:24:57;;;;;;;20.35;7.75;;;;;;;;;;5089434;28;20283;-44
2023/07/04 05:27:24;;;;;;;14.32;7.38;;;;;;;;;;5095849;28;20190;-43
2023/07/04 05:29:51;;;;;;;15.60;7.53;;;;;;;;;;5096346;28;20195;-43
2023/07/04 05:32:18;;;;;;;17.50;7.93;;;;;;;;;;5095916;28;20210;-43
2023/07/04 05:34:47;;;;;;;16.17;8.20;;;;;;;;;;5088357;28;20597;-43
2023/07/04 05:37:15;;;;;;;22.35;7.60;;;;;;;;;;5094431;28;20241;-43
2023/07/04 05:39:44;;;;;;;18.05;7.90;;;;;;;;;;5094868;28;20219;-44
2023/07/04 05:42:12;;;;;;;19.83;8.70;;;;;;;;;;5087107;28;20230;-43
2023/07/04 05:44:38;;;;;;;13.35;7.85;;;;;;;;;;5087417;28;20227;-43
2023/07/04 05:47:06;;;;;;;17.23;7.78;;;;;;;;;;5086598;28;20222;-43
2023/07/04 05:49:33;;;;;;;14.35;8.07;;;;;;;;;;5086757;28;20539;-43
2023/07/04 05:52:00;;;;;;;15.77;7.95;;;;;;;;;;5094746;28;20226;-44
2023/07/04 05:54:27;;;;;;;14.30;7.70;;;;;;;;;;5094107;28;20275;-43
2023/07/04 05:56:58;;;;;;;18.50;7.43;;;;;;;;;;5095268;28;20234;-42
2023/07/04 05:59:25;;;;;;;14.85;8.13;;;;;;;;;;5095359;28;20218;-43
2023/07/04 06:01:52;;;;;;;18.48;8.20;;;;;;;;;;5095012;28;20223;-43
2023/07/04 06:04:19;;;;;;;14.52;8.20;;;;;;;;;;5094099;28;20219;-43
2023/07/04 06:06:52;;;;;;;16.48;8.48;;;;;;;;;;5094714;28;20234;-44
2023/07/04 06:09:20;;;;;;;15.48;7.75;;;;;;;;;;5095276;28;20297;-43
2023/07/04 06:11:48;;;;;;;14.13;7.63;;;;;;;;;;5094902;28;20230;-46
2023/07/04 06:14:21;;;;;;;14.27;8.43;;;;;;;;;;5095173;28;20267;-44
2023/07/04 06:16:48;;;;;;;13.57;7.53;;;;;;;;;;5094575;28;20237;-43
2023/07/04 06:19:15;;;;;;;20.17;8.07;;;;;;;;;;5088794;28;20792;-43
2023/07/04 06:21:42;;;;;;;17.65;8.63;;;;;;;;;;5074413;28;20230;-43
2023/07/04 06:24:11;;;;;;;13.35;7.80;;;;;;;;;;5074486;28;20318;-43
2023/07/04 06:26:39;;;;;;;12.60;7.22;;;;;;;;;;5074376;28;20228;-43
2023/07/04 06:29:06;;;;;;;15.52;7.20;;;;;;;;;;5074160;28;20868;-43
2023/07/04 06:31:33;;;;;;;16.90;7.07;;;;;;;;;;5074413;28;20224;-43
2023/07/04 06:34:00;;;;;;;13.32;7.32;;;;;;;;;;5072076;28;20288;-43
2023/07/04 06:36:28;;;;;;;17.35;7.53;;;;;;;;;;5089281;28;20322;-43
2023/07/04 06:39:01;;;;;;;12.55;6.40;;;;;;;;;;5094305;28;20240;-43
2023/07/04 06:41:29;;;;;;;13.10;7.03;;;;;;;;;;5094434;28;20296;-43
2023/07/04 06:43:56;;;;;;;14.52;7.03;;;;;;;;;;5093993;28;20223;-43
2023/07/04 06:46:23;;;;;;;17.60;6.07;;;;;;;;;;5094356;28;20233;-43
2023/07/04 06:48:51;;;;;;;13.93;5.90;;;;;;;;;;5092659;28;20218;-44
2023/07/04 06:51:20;;;;;;;18.25;6.55;;;;;;;;;;5093523;28;20575;-43
2023/07/04 06:53:47;;;;;;;13.13;6.15;;;;;;;;;;5094416;28;20195;-45
2023/07/04 06:56:18;;;;;;;11.98;6.07;;;;;;;;;;5094355;28;20223;-45
2023/07/04 06:58:52;;;;;;;14.88;6.60;;;;;;;;;;5094272;28;20221;-43
2023/07/04 07:01:26;;;;;;;18.48;6.35;;;;;;;;;;5091382;28;20199;-43
2023/07/04 07:03:55;;;;;;;10.63;5.43;;;;;;;;;;5091982;28;20179;-44
2023/07/04 07:06:23;;;;;;;16.02;6.53;;;;;;;;;;5093332;28;20264;-43
2023/07/04 07:08:50;;;;;;;10.43;5.75;;;;;;;;;;5094491;28;20187;-44
2023/07/04 07:11:19;;;;;;;15.80;5.97;;;;;;;;;;5094019;28;20199;-45
2023/07/04 07:13:46;;;;;;;12.25;6.22;;;;;;;;;;5094135;28;20286;-44
2023/07/04 07:16:20;;;;;;;15.23;6.50;;;;;;;;;;5094093;28;20226;-43
2023/07/04 07:18:47;;;;;;;12.77;6.03;;;;;;;;;;5094367;28;20195;-43
2023/07/04 07:21:18;;;;;;;11.30;6.32;;;;;;;;;;5076104;28;20305;-43
2023/07/04 07:23:46;;;;;;;14.43;6.68;;;;;;;;;;5088867;28;20230;-43
2023/07/04 07:26:17;;;;;;;12.02;5.55;;;;;;;;;;5093092;28;20226;-43
2023/07/04 07:28:48;;;;;;;13.00;5.75;;;;;;;;;;5092468;28;20224;-43
2023/07/04 07:31:18;;;;;;;12.13;4.80;;;;;;;;;;5093055;28;20218;-43
2023/07/04 07:33:48;;;;;;;10.88;5.65;;;;;;;;;;5092463;28;20211;-43
2023/07/04 07:36:20;;;;;;;11.25;5.38;;;;;;;;;;5089778;28;20714;-43
2023/07/04 07:38:48;;;;;;;9.75;5.53;;;;;;;;;;5091332;28;20272;-43
2023/07/04 07:41:16;;;;;;;8.02;4.80;;;;;;;;;;5091998;28;20219;-43
2023/07/04 07:43:43;;;;;;;9.25;4.60;;;;;;;;;;5091211;28;20701;-45
2023/07/04 07:46:13;;;;;;;9.68;4.78;;;;;;;;;;5091017;28;20652;-44
2023/07/04 07:48:41;;;;;;;11.60;5.38;;;;;;;;;;5091957;28;20223;-44
2023/07/04 07:51:10;;;;;;;12.20;5.47;;;;;;;;;;5092111;28;20616;-43
2023/07/04 07:53:42;;;;;;;10.05;5.50;;;;;;;;;;5091495;28;20745;-45
2023/07/04 07:56:11;;;;;;;10.45;5.90;;;;;;;;;;5092450;28;20230;-44
2023/07/04 07:58:38;;;;;;;8.48;5.25;;;;;;;;;;5092512;28;20293;-44
2023/07/04 08:01:33;;;;;;;11.77;4.53;;;;;;;;;;5091511;28;20226;-43
2023/07/04 08:04:01;;;;;;;9.00;5.30;;;;;;;;;;5091838;28;20600;-49
2023/07/04 08:06:37;;;;;;;11.25;5.20;;;;;;;;;;5092190;28;20252;-43
2023/07/04 08:09:07;;;;;;;10.88;5.32;;;;;;;;;;5091912;28;20210;-44
2023/07/04 08:11:34;;;;;;;12.35;5.78;;;;;;;;;;5091523;28;20222;-44
2023/07/04 08:14:02;;;;;;;12.85;5.22;;;;;;;;;;5092520;28;20706;-43
2023/07/04 08:16:47;;;;;;;13.60;5.07;;;;;;;;;;5091005;28;20218;-45
2023/07/04 08:19:17;;;;;;;13.30;4.97;;;;;;;;;;5091858;28;20226;-44
2023/07/04 08:21:45;;;;;;;8.52;4.50;;;;;;;;;;5091951;28;20215;-44
2023/07/04 08:24:13;;;;;;;23.95;7.50;;;;;;;;;;5092277;28;20226;-44
2023/07/04 08:26:44;;;;;;;11.13;5.45;;;;;;;;;;5092046;28;20218;-48
2023/07/04 08:29:12;;;;;;;12.95;5.22;;;;;;;;;;5092507;28;20245;-44
2023/07/04 08:31:40;;;;;;;9.35;4.93;;;;;;;;;;5091734;28;20226;-45
2023/07/04 08:34:09;;;;;;;11.73;5.20;;;;;;;;;;5088691;28;20597;-44
2023/07/04 08:36:39;;;;;;;10.93;4.88;;;;;;;;;;5091623;28;20238;-44
2023/07/04 08:39:07;;;;;;;14.93;5.72;;;;;;;;;;5091377;28;20309;-43
2023/07/04 08:41:58;;;;;;;8.73;5.10;;;;;;;;;;5090982;28;20574;-44
2023/07/04 08:44:36;;;;;;;7.97;4.47;;;;;;;;;;5109972;28;20310;-47
2023/07/04 08:47:05;;;;;;;9.88;4.80;;;;;;;;;;5090478;28;20206;-47
2023/07/04 08:49:38;;;;;;;10.52;4.93;;;;;;;;;;5091777;28;20210;-44
2023/07/04 08:52:11;;;;;;;12.45;5.28;;;;;;;;;;5113668;28;20224;-45
2023/07/04 08:54:38;;;;;;;10.85;5.70;;;;;;;;;;5091920;28;20724;-46
2023/07/04 08:57:26;;;;;;;10.45;4.95;;;;;;;;;;5090813;28;20230;-43
2023/07/04 08:59:59;;;;;;;8.48;4.65;;;;;;;;;;5090541;28;20219;-45
2023/07/04 09:02:30;;;;;;;10.93;5.47;;;;;;;;;;5090988;28;20254;-43
2023/07/04 09:05:23;;;;;;;11.30;5.20;;;;;;;;;;5091882;28;20318;-43
2023/07/04 09:08:10;;;;;;;11.68;4.95;;;;;;;;;;5091693;28;20699;-44
2023/07/04 09:10:49;;;;;;;8.75;4.72;;;;;;;;;;5092556;28;20326;-44
2023/07/04 09:13:30;;;;;;;10.75;4.78;;;;;;;;;;5092595;28;20577;-43
2023/07/04 09:16:01;;;;;;;13.50;5.45;;;;;;;;;;5090991;28;20275;-44
2023/07/04 09:19:05;;;;;;;15.52;5.57;;;;;;;;;;5092325;27;20235;-46
2023/07/04 09:21:33;;;;;;;8.85;5.20;;;;;;;;;;5092041;28;20225;-43
2023/07/04 09:24:04;;;;;;;17.67;5.43;;;;;;;;;;5091813;28;20249;-45
2023/07/04 09:26:44;;;;;;;11.18;5.55;;;;;;;;;;5091726;28;20260;-46
2023/07/04 09:29:13;;;;;;;9.30;4.63;;;;;;;;;;5091108;28;20709;-43
2023/07/04 09:31:41;;;;;;;14.73;5.03;;;;;;;;;;5095645;28;20218;-43
2023/07/04 09:34:22;;;;;;;12.68;5.60;;;;;;;;;;5095165;28;20222;-44
2023/07/04 09:36:51;;;;;;;15.52;6.18;;;;;;;;;;5093839;28;20222;-43
2023/07/04 09:39:19;;;;;;;13.38;5.43;;;;;;;;;;5095587;28;20592;-44
2023/07/04 09:41:57;;;;;;;13.93;5.45;;;;;;;;;;5095231;28;20711;-44
2023/07/04 09:44:45;;;;;;;14.23;5.35;;;;;;;;;;5095325;28;20567;-44
2023/07/04 09:47:25;;;;;;;13.18;5.70;;;;;;;;;;5095365;28;20223;-44
2023/07/04 09:50:15;;;;;;;18.60;5.18;;;;;;;;;;5093718;28;20222;-44
2023/07/04 09:52:43;;;;;;;11.90;5.57;;;;;;;;;;5089222;28;20230;-44
2023/07/04 09:55:17;;;;;;;10.38;5.50;;;;;;;;;;5094366;28;20230;-43
2023/07/04 09:57:44;;;;;;;9.45;5.22;;;;;;;;;;5092489;28;20630;-44
2023/07/04 10:00:24;;;;;;;11.68;5.45;;;;;;;;;;5090088;28;20614;-44
2023/07/04 10:02:55;;;;;;;10.45;5.43;;;;;;;;;;5092684;28;20215;-44
2023/07/04 10:05:23;;;;;;;15.82;5.38;;;;;;;;;;5093964;28;20269;-43
2023/07/04 10:08:06;;;;;;;11.57;5.50;;;;;;;;;;5093728;28;20292;-45
2023/07/04 10:10:49;;;;;;;8.93;5.30;;;;;;;;;;5090880;28;20207;-44
2023/07/04 10:13:39;;;;;;;10.95;5.60;;;;;;;;;;5091880;28;20222;-43
2023/07/04 10:16:20;;;;;;;14.38;5.50;;;;;;;;;;5071678;28;20699;-43
2023/07/04 10:18:47;;;;;;;8.43;4.38;;;;;;;;;;5068158;28;20239;-43
2023/07/04 10:21:15;;;;;;;12.18;5.53;;;;;;;;;;5071043;28;20215;-43
2023/07/04 10:23:42;;;;;;;16.17;6.03;;;;;;;;;;5071132;28;20246;-45
2023/07/04 10:26:12;;;;;;;10.63;4.97;;;;;;;;;;5071895;28;20222;-43
2023/07/04 10:28:39;;;;;;;10.88;4.97;;;;;;;;;;5071726;28;20215;-44
2023/07/04 10:31:11;;;;;;;12.02;5.13;;;;;;;;;;5068861;28;20223;-44
2023/07/04 10:33:51;;;;;;;10.77;5.22;;;;;;;;;;5070959;28;20226;-44
2023/07/04 10:36:26;;;;;;;8.25;4.80;;;;;;;;;;5070168;28;20276;-43
2023/07/04 10:38:56;;;;;;;16.23;5.30;;;;;;;;;;5069036;28;20219;-46
2023/07/04 10:41:30;;;;;;;9.00;5.20;;;;;;;;;;5070607;28;20840;-44
2023/07/04 10:44:02;;;;;;;10.40;5.80;;;;;;;;;;5052259;28;20258;-45
2023/07/04 10:46:40;;;;;;;11.38;5.45;;;;;;;;;;5070049;28;20302;-44
2023/07/04 10:49:18;;;;;;;11.00;5.18;;;;;;;;;;5051310;28;20594;-44
2023/07/04 10:51:48;;;;;;;9.40;4.75;;;;;;;;;;5068393;28;20277;-44
2023/07/04 10:54:16;;;;;;;8.82;5.20;;;;;;;;;;5088986;28;20223;-44
2023/07/04 10:56:47;;;;;;;8.93;4.85;;;;;;;;;;5093479;28;20211;-45
2023/07/04 10:59:18;;;;;;;9.35;5.35;;;;;;;;;;5115868;27;20247;-44
2023/07/04 11:01:57;;;;;;;12.50;5.53;;;;;;;;;;5093211;28;20219;-43
2023/07/04 11:04:27;;;;;;;11.52;4.78;;;;;;;;;;5087621;28;20222;-43
2023/07/04 11:07:05;;;;;;;11.50;5.50;;;;;;;;;;5091733;28;20570;-44
2023/07/04 11:09:35;;;;;;;10.77;5.03;;;;;;;;;;5092894;28;20250;-44
2023/07/04 11:12:05;;;;;;;12.32;5.05;;;;;;;;;;5092382;28;20223;-45
2023/07/04 11:14:36;;;;;;;12.55;5.07;;;;;;;;;;5093778;28;20227;-44
2023/07/04 11:17:04;;;;;;;17.27;5.07;;;;;;;;;;5093578;28;20227;-44
2023/07/04 11:19:35;;;;;;;12.10;5.63;;;;;;;;;;5093381;28;20214;-43
2023/07/04 11:22:03;;;;;;;11.30;4.90;;;;;;;;;;5093095;28;20234;-45
2023/07/04 11:24:51;;;;;;;8.07;5.00;;;;;;;;;;5093521;28;20721;-43
2023/07/04 11:27:24;;;;;;;11.60;5.10;;;;;;;;;;5093517;28;20710;-44
2023/07/04 11:30:00;;;;;;;9.45;5.45;;;;;;;;;;5092104;28;20687;-44
2023/07/04 11:32:37;;;;;;;9.32;4.75;;;;;;;;;;5093551;27;20225;-45
2023/07/04 11:35:10;;;;;;;10.18;4.90;;;;;;;;;;5092784;28;20230;-44
2023/07/04 11:37:53;;;;;;;9.77;4.78;;;;;;;;;;5093021;28;20260;-44
2023/07/04 11:40:31;;;;;;;10.57;5.18;;;;;;;;;;5093295;28;20655;-44
2023/07/04 11:43:03;;;;;;;8.27;5.30;;;;;;;;;;5092974;28;20583;-43
2023/07/04 11:45:31;;;;;;;9.57;5.15;;;;;;;;;;5093322;28;20280;-46
2023/07/04 11:48:03;;;;;;;9.45;5.25;;;;;;;;;;5091083;28;20287;-43
2023/07/04 11:50:38;;;;;;;8.15;4.53;;;;;;;;;;5092442;28;20244;-43
2023/07/04 11:53:16;;;;;;;8.70;4.45;;;;;;;;;;5092370;28;20709;-44
2023/07/04 11:55:44;;;;;;;8.52;4.63;;;;;;;;;;5093194;28;20249;-44
2023/07/04 11:58:16;;;;;;;11.50;5.32;;;;;;;;;;5093064;27;20256;-43
2023/07/04 12:00:44;;;;;;;10.60;4.97;;;;;;;;;;5092398;28;20254;-45
2023/07/04 12:03:20;;;;;;;13.32;5.47;;;;;;;;;;5092921;27;20219;-44
2023/07/04 12:05:59;;;;;;;9.00;4.90;;;;;;;;;;5092391;28;20690;-44
2023/07/04 12:08:47;;;;;;;9.57;5.03;;;;;;;;;;5092229;28;20551;-43
2023/07/04 12:11:20;;;;;;;9.52;5.25;;;;;;;;;;5092365;28;20194;-44
2023/07/04 12:13:49;;;;;;;13.48;5.57;;;;;;;;;;5093543;28;20203;-44
2023/07/04 12:16:20;;;;;;;9.77;5.30;;;;;;;;;;5092358;28;20286;-44
2023/07/04 12:18:48;;;;;;;12.20;5.30;;;;;;;;;;5091835;28;20215;-44
2023/07/04 12:21:17;;;;;;;11.07;4.88;;;;;;;;;;5075502;28;20234;-45
2023/07/04 12:23:46;;;;;;;11.82;5.82;;;;;;;;;;5077998;28;20250;-44
2023/07/04 12:26:23;;;;;;;9.68;5.28;;;;;;;;;;5079579;28;20733;-46
2023/07/04 12:28:53;;;;;;;9.00;4.75;;;;;;;;;;5079910;28;20219;-44
2023/07/04 12:31:23;;;;;;;10.57;4.97;;;;;;;;;;5080159;28;20226;-44
2023/07/04 12:33:53;;;;;;;9.48;5.20;;;;;;;;;;5080292;28;20719;-44
2023/07/04 12:36:27;;;;;;;9.50;4.53;;;;;;;;;;5087318;28;20215;-44
2023/07/04 12:38:55;;;;;;;11.57;5.22;;;;;;;;;;5071267;28;20257;-45
2023/07/04 12:41:24;;;;;;;10.35;5.00;;;;;;;;;;5089931;28;20559;-44
2023/07/04 12:44:00;;;;;;;10.18;5.15;;;;;;;;;;5091262;28;20214;-44
2023/07/04 12:46:33;;;;;;;9.23;4.55;;;;;;;;;;5091608;28;20220;-44
2023/07/04 12:49:04;;;;;;;10.23;5.13;;;;;;;;;;5091540;28;20242;-47
2023/07/04 12:51:34;;;;;;;12.43;5.40;;;;;;;;;;5089912;28;20225;-46
2023/07/04 12:54:03;;;;;;;9.18;4.60;;;;;;;;;;5091050;28;20571;-45
2023/07/04 12:56:30;;;;;;;10.18;4.72;;;;;;;;;;5089923;28;20655;-44
2023/07/04 12:58:58;;;;;;;10.18;4.70;;;;;;;;;;5090510;28;20234;-44
2023/07/04 13:01:30;;;;;;;9.13;4.55;;;;;;;;;;5087483;28;20216;-43
2023/07/04 13:03:59;;;;;;;13.20;4.63;;;;;;;;;;5073750;28;21115;-42
2023/07/04 13:06:30;;;;;;;10.38;4.97;;;;;;;;;;5075620;28;20761;-43
2023/07/04 13:08:58;;;;;;;7.82;4.13;;;;;;;;;;5075936;28;20322;-44
2023/07/04 13:11:25;;;;;;;9.60;4.40;;;;;;;;;;5075684;28;20238;-44
2023/07/04 13:14:08;;;;;;;12.88;5.30;;;;;;;;;;5074719;28;20223;-43
2023/07/04 13:16:36;;;;;;;10.98;4.88;;;;;;;;;;5076354;28;20215;-44
2023/07/04 13:19:07;;;;;;;16.77;6.72;;;;;;;;;;5076485;28;20231;-48
2023/07/04 13:21:37;;;;;;;22.33;5.90;;;;;;;;;;5076681;28;20183;-43
2023/07/04 13:24:28;;;;;;;11.00;4.50;;;;;;;;;;5108007;28;20235;-45
2023/07/04 13:27:21;;;;;;;15.80;4.85;;;;;;;;;;5076298;28;20578;-44
2023/07/04 13:29:48;;;;;;;8.57;4.15;;;;;;;;;;5076112;28;20210;-45
2023/07/04 13:32:40;;;;;;;10.48;5.18;;;;;;;;;;5096509;28;20586;-44
2023/07/04 13:35:32;;;;;;;11.88;4.90;;;;;;;;;;5095471;28;20211;-44
2023/07/04 13:37:59;;;;;;;9.15;4.47;;;;;;;;;;5096703;28;20218;-45
2023/07/04 13:40:30;;;;;;;7.35;4.68;;;;;;;;;;5095356;28;20190;-45
2023/07/04 13:43:05;;;;;;;11.23;5.72;;;;;;;;;;5096509;28;20313;-43
2023/07/04 13:45:37;;;;;;;9.98;5.10;;;;;;;;;;5078834;28;20256;-45
2023/07/04 13:48:04;;;;;;;9.57;4.97;;;;;;;;;;5095993;28;20268;-45
2023/07/04 13:50:33;;;;;;;13.75;5.22;;;;;;;;;;5096059;28;20580;-44
2023/07/04 13:53:03;;;;;;;13.68;6.03;;;;;;;;;;5095880;28;20205;-46
2023/07/04 13:55:42;;;;;;;10.93;4.97;;;;;;;;;;5093631;28;20203;-46
2023/07/04 13:58:09;;;;;;;11.27;4.78;;;;;;;;;;5084957;28;20578;-44
2023/07/04 14:00:37;;;;;;;9.68;5.18;;;;;;;;;;5081287;28;20557;-50
2023/07/04 14:03:24;;;;;;;10.30;4.93;;;;;;;;;;5090414;28;20584;-44
2023/07/04 14:05:55;;;;;;;10.25;5.57;;;;;;;;;;5086664;28;20198;-44
2023/07/04 14:08:27;;;;;;;11.30;4.68;;;;;;;;;;5092353;28;20221;-43
2023/07/04 14:11:05;;;;;;;15.32;4.90;;;;;;;;;;5094513;28;20203;-45
2023/07/04 14:13:33;;;;;;;17.60;5.20;;;;;;;;;;5094032;28;20556;-44
2023/07/04 14:16:03;;;;;;;15.68;5.80;;;;;;;;;;5095373;28;20203;-46
2023/07/04 14:18:34;;;;;;;8.75;4.82;;;;;;;;;;5088592;28;20203;-46
2023/07/04 14:21:09;;;;;;;11.90;4.88;;;;;;;;;;5077473;28;20644;-45
2023/07/04 14:23:37;;;;;;;11.10;4.55;;;;;;;;;;5095673;28;20175;-43
2023/07/04 14:26:15;;;;;;;10.98;5.22;;;;;;;;;;5094108;28;20195;-45
2023/07/04 14:28:48;;;;;;;14.43;7.38;;;;;;;;;;5095120;28;20252;-44
2023/07/04 14:31:16;;;;;;;11.43;5.75;;;;;;;;;;5094457;28;20194;-49
2023/07/04 14:33:43;;;;;;;13.50;6.32;;;;;;;;;;5095066;28;20193;-45
2023/07/04 14:36:10;;;;;;;17.23;9.38;;;;;;;;;;5088235;28;20202;-46
2023/07/04 14:38:37;;;;;;;18.88;5.97;;;;;;;;;;5092419;28;20226;-44
2023/07/04 14:41:06;;;;;;;10.52;5.53;;;;;;;;;;5088595;28;20224;-45
2023/07/04 14:43:36;;;;;;;16.65;8.77;;;;;;;;;;5094140;28;20597;-44
2023/07/04 14:46:05;;;;;;;11.00;6.00;;;;;;;;;;5094856;28;20206;-44
2023/07/04 14:48:34;;;;;;;11.35;5.22;;;;;;;;;;5095100;28;20195;-44
2023/07/04 14:51:10;;;;;;;14.02;6.03;;;;;;;;;;5093798;28;20202;-47
2023/07/04 14:53:38;;;;;;;13.82;6.38;;;;;;;;;;5092409;28;20194;-44